sensor_id;sensor_type;location;lat;lon;timestamp;P1;durP1;ratioP1;P2;durP2;ratioP2
14139;SDS011;7150;53.514;9.988;2022-11-13T00:00:04;14.07;;;7.80;;
14139;SDS011;7150;53.514;9.988;2022-11-13T00:02:31;10.03;;;7.20;;
14139;SDS011;7150;53.514;9.988;2022-11-13T00:04:58;13.60;;;8.00;;
14139;SDS011;7150;53.514;9.988;2022-11-13T00:07:24;15.47;;;8.00;;
14139;SDS011;7150;53.514;9.988;2022-11-13T00:09:49;13.17;;;8.20;;
14139;SDS011;7150;53.514;9.988;2022-11-13T00:12:15;12.77;;;7.83;;
14139;SDS011;7150;53.514;9.988;2022-11-13T00:14:40;12.47;;;8.40;;
14139;SDS011;7150;53.514;9.988;2022-11-13T00:17:06;14.50;;;8.10;;
14139;SDS011;7150;53.514;9.988;2022-11-13T00:19:31;13.40;;;8.07;;
14139;SDS011;7150;53.514;9.988;2022-11-13T00:21:57;14.57;;;8.67;;
14139;SDS011;7150;53.514;9.988;2022-11-13T00:24:23;11.50;;;8.03;;
14139;SDS011;7150;53.514;9.988;2022-11-13T00:26:49;13.40;;;8.07;;
14139;SDS011;7150;53.514;9.988;2022-11-13T00:29:14;11.40;;;7.60;;
14139;SDS011;7150;53.514;9.988;2022-11-13T00:31:40;10.93;;;8.40;;
14139;SDS011;7150;53.514;9.988;2022-11-13T00:34:05;14.77;;;7.80;;
14139;SDS011;7150;53.514;9.988;2022-11-13T00:36:31;14.57;;;8.47;;
14139;SDS011;7150;53.514;9.988;2022-11-13T00:38:56;14.17;;;7.63;;
14139;SDS011;7150;53.514;9.988;2022-11-13T00:41:22;15.23;;;8.30;;
14139;SDS011;7150;53.514;9.988;2022-11-13T00:43:48;16.00;;;8.83;;
14139;SDS011;7150;53.514;9.988;2022-11-13T00:46:14;13.97;;;8.33;;
14139;SDS011;7150;53.514;9.988;2022-11-13T00:48:39;12.90;;;9.00;;
14139;SDS011;7150;53.514;9.988;2022-11-13T00:51:05;13.50;;;8.90;;
14139;SDS011;7150;53.514;9.988;2022-11-13T00:53:31;11.80;;;8.10;;
14139;SDS011;7150;53.514;9.988;2022-11-13T00:55:56;14.47;;;8.90;;
14139;SDS011;7150;53.514;9.988;2022-11-13T00:58:24;13.37;;;8.37;;
14139;SDS011;7150;53.514;9.988;2022-11-13T01:00:50;14.30;;;9.20;;
14139;SDS011;7150;53.514;9.988;2022-11-13T01:03:15;14.37;;;8.67;;
14139;SDS011;7150;53.514;9.988;2022-11-13T01:05:43;14.00;;;8.53;;
14139;SDS011;7150;53.514;9.988;2022-11-13T01:08:10;14.60;;;9.13;;
14139;SDS011;7150;53.514;9.988;2022-11-13T01:10:38;14.10;;;9.27;;
14139;SDS011;7150;53.514;9.988;2022-11-13T01:13:09;14.13;;;9.20;;
14139;SDS011;7150;53.514;9.988;2022-11-13T01:15:37;13.63;;;8.50;;
14139;SDS011;7150;53.514;9.988;2022-11-13T01:18:03;13.27;;;8.17;;
14139;SDS011;7150;53.514;9.988;2022-11-13T01:20:28;12.30;;;8.40;;
14139;SDS011;7150;53.514;9.988;2022-11-13T01:22:54;11.40;;;8.37;;
14139;SDS011;7150;53.514;9.988;2022-11-13T01:25:19;13.90;;;8.77;;
14139;SDS011;7150;53.514;9.988;2022-11-13T01:27:45;15.87;;;8.80;;
14139;SDS011;7150;53.514;9.988;2022-11-13T01:30:11;13.03;;;8.27;;
14139;SDS011;7150;53.514;9.988;2022-11-13T01:32:37;13.53;;;8.17;;
14139;SDS011;7150;53.514;9.988;2022-11-13T01:35:02;12.90;;;8.63;;
14139;SDS011;7150;53.514;9.988;2022-11-13T01:37:28;14.63;;;8.63;;
14139;SDS011;7150;53.514;9.988;2022-11-13T01:39:53;12.80;;;8.30;;
14139;SDS011;7150;53.514;9.988;2022-11-13T01:42:19;12.87;;;8.60;;
14139;SDS011;7150;53.514;9.988;2022-11-13T01:44:46;18.23;;;9.23;;
14139;SDS011;7150;53.514;9.988;2022-11-13T01:47:14;12.90;;;8.90;;
14139;SDS011;7150;53.514;9.988;2022-11-13T01:49:40;14.57;;;9.53;;
14139;SDS011;7150;53.514;9.988;2022-11-13T01:52:10;14.37;;;9.60;;
14139;SDS011;7150;53.514;9.988;2022-11-13T01:54:40;15.40;;;9.07;;
14139;SDS011;7150;53.514;9.988;2022-11-13T01:57:11;17.60;;;9.40;;
14139;SDS011;7150;53.514;9.988;2022-11-13T01:59:39;14.93;;;8.90;;
14139;SDS011;7150;53.514;9.988;2022-11-13T02:02:07;12.60;;;8.83;;
14139;SDS011;7150;53.514;9.988;2022-11-13T02:04:32;15.43;;;9.77;;
14139;SDS011;7150;53.514;9.988;2022-11-13T02:07:03;13.27;;;9.03;;
14139;SDS011;7150;53.514;9.988;2022-11-13T02:09:36;15.70;;;10.03;;
14139;SDS011;7150;53.514;9.988;2022-11-13T02:12:07;17.00;;;9.70;;
14139;SDS011;7150;53.514;9.988;2022-11-13T02:14:37;14.90;;;9.50;;
14139;SDS011;7150;53.514;9.988;2022-11-13T02:17:07;13.83;;;9.57;;
14139;SDS011;7150;53.514;9.988;2022-11-13T02:19:37;17.73;;;9.40;;
14139;SDS011;7150;53.514;9.988;2022-11-13T02:24:45;15.03;;;9.47;;
14139;SDS011;7150;53.514;9.988;2022-11-13T02:27:16;14.60;;;8.93;;
14139;SDS011;7150;53.514;9.988;2022-11-13T02:29:49;14.43;;;9.70;;
14139;SDS011;7150;53.514;9.988;2022-11-13T02:32:15;14.27;;;9.13;;
14139;SDS011;7150;53.514;9.988;2022-11-13T02:34:41;13.80;;;10.10;;
14139;SDS011;7150;53.514;9.988;2022-11-13T02:37:06;15.27;;;9.43;;
14139;SDS011;7150;53.514;9.988;2022-11-13T02:39:32;15.10;;;8.73;;
14139;SDS011;7150;53.514;9.988;2022-11-13T02:41:57;18.33;;;9.83;;
14139;SDS011;7150;53.514;9.988;2022-11-13T02:44:23;15.40;;;9.17;;
14139;SDS011;7150;53.514;9.988;2022-11-13T02:46:48;16.97;;;9.20;;
14139;SDS011;7150;53.514;9.988;2022-11-13T02:49:14;14.37;;;8.50;;
14139;SDS011;7150;53.514;9.988;2022-11-13T02:51:39;13.73;;;9.27;;
14139;SDS011;7150;53.514;9.988;2022-11-13T02:54:05;16.00;;;9.40;;
14139;SDS011;7150;53.514;9.988;2022-11-13T02:56:30;15.73;;;9.67;;
14139;SDS011;7150;53.514;9.988;2022-11-13T02:58:56;13.97;;;9.20;;
14139;SDS011;7150;53.514;9.988;2022-11-13T03:01:21;14.73;;;8.73;;
14139;SDS011;7150;53.514;9.988;2022-11-13T03:03:47;13.70;;;9.13;;
14139;SDS011;7150;53.514;9.988;2022-11-13T03:06:13;16.07;;;8.50;;
14139;SDS011;7150;53.514;9.988;2022-11-13T03:08:38;15.10;;;9.10;;
14139;SDS011;7150;53.514;9.988;2022-11-13T03:11:08;14.90;;;9.07;;
14139;SDS011;7150;53.514;9.988;2022-11-13T03:13:35;14.33;;;8.63;;
14139;SDS011;7150;53.514;9.988;2022-11-13T03:16:08;11.17;;;8.57;;
14139;SDS011;7150;53.514;9.988;2022-11-13T03:18:38;13.57;;;8.93;;
14139;SDS011;7150;53.514;9.988;2022-11-13T03:21:07;13.10;;;8.47;;
14139;SDS011;7150;53.514;9.988;2022-11-13T03:23:34;12.53;;;8.57;;
14139;SDS011;7150;53.514;9.988;2022-11-13T03:26:04;13.90;;;8.47;;
14139;SDS011;7150;53.514;9.988;2022-11-13T03:28:30;14.80;;;9.70;;
14139;SDS011;7150;53.514;9.988;2022-11-13T03:30:56;13.83;;;9.37;;
14139;SDS011;7150;53.514;9.988;2022-11-13T03:33:22;13.97;;;9.20;;
14139;SDS011;7150;53.514;9.988;2022-11-13T03:35:48;14.60;;;8.73;;
14139;SDS011;7150;53.514;9.988;2022-11-13T03:38:13;14.47;;;8.90;;
14139;SDS011;7150;53.514;9.988;2022-11-13T03:40:39;14.83;;;9.07;;
14139;SDS011;7150;53.514;9.988;2022-11-13T03:43:06;13.90;;;8.77;;
14139;SDS011;7150;53.514;9.988;2022-11-13T03:45:31;12.53;;;8.40;;
14139;SDS011;7150;53.514;9.988;2022-11-13T03:47:57;17.80;;;9.67;;
14139;SDS011;7150;53.514;9.988;2022-11-13T03:50:23;14.17;;;9.63;;
14139;SDS011;7150;53.514;9.988;2022-11-13T03:52:48;16.53;;;8.50;;
14139;SDS011;7150;53.514;9.988;2022-11-13T03:55:14;15.40;;;9.17;;
14139;SDS011;7150;53.514;9.988;2022-11-13T03:57:39;14.63;;;9.30;;
14139;SDS011;7150;53.514;9.988;2022-11-13T04:00:05;14.70;;;8.70;;
14139;SDS011;7150;53.514;9.988;2022-11-13T04:02:31;13.77;;;9.13;;
14139;SDS011;7150;53.514;9.988;2022-11-13T04:04:56;13.70;;;9.00;;
14139;SDS011;7150;53.514;9.988;2022-11-13T04:07:22;15.77;;;9.50;;
14139;SDS011;7150;53.514;9.988;2022-11-13T04:09:47;15.53;;;9.67;;
14139;SDS011;7150;53.514;9.988;2022-11-13T04:12:13;16.33;;;9.93;;
14139;SDS011;7150;53.514;9.988;2022-11-13T04:14:38;16.13;;;9.37;;
14139;SDS011;7150;53.514;9.988;2022-11-13T04:17:04;15.40;;;9.23;;
14139;SDS011;7150;53.514;9.988;2022-11-13T04:19:29;17.73;;;10.30;;
14139;SDS011;7150;53.514;9.988;2022-11-13T04:21:55;17.83;;;9.43;;
14139;SDS011;7150;53.514;9.988;2022-11-13T04:24:20;14.33;;;9.57;;
14139;SDS011;7150;53.514;9.988;2022-11-13T04:26:46;15.83;;;9.97;;
14139;SDS011;7150;53.514;9.988;2022-11-13T04:29:11;18.37;;;10.37;;
14139;SDS011;7150;53.514;9.988;2022-11-13T04:31:37;16.47;;;9.77;;
14139;SDS011;7150;53.514;9.988;2022-11-13T04:34:02;17.07;;;9.83;;
14139;SDS011;7150;53.514;9.988;2022-11-13T04:36:28;16.10;;;9.70;;
14139;SDS011;7150;53.514;9.988;2022-11-13T04:38:53;18.70;;;9.63;;
14139;SDS011;7150;53.514;9.988;2022-11-13T04:41:19;15.80;;;9.87;;
14139;SDS011;7150;53.514;9.988;2022-11-13T04:44:03;17.93;;;9.63;;
14139;SDS011;7150;53.514;9.988;2022-11-13T04:46:29;15.90;;;9.57;;
14139;SDS011;7150;53.514;9.988;2022-11-13T04:48:54;14.43;;;9.20;;
14139;SDS011;7150;53.514;9.988;2022-11-13T04:51:20;15.37;;;10.40;;
14139;SDS011;7150;53.514;9.988;2022-11-13T04:53:45;16.57;;;9.17;;
14139;SDS011;7150;53.514;9.988;2022-11-13T04:56:11;16.37;;;9.63;;
14139;SDS011;7150;53.514;9.988;2022-11-13T04:58:36;14.13;;;9.67;;
14139;SDS011;7150;53.514;9.988;2022-11-13T05:01:02;14.30;;;9.40;;
14139;SDS011;7150;53.514;9.988;2022-11-13T05:03:28;15.47;;;9.97;;
14139;SDS011;7150;53.514;9.988;2022-11-13T05:06:00;15.33;;;9.73;;
14139;SDS011;7150;53.514;9.988;2022-11-13T05:08:26;17.37;;;10.73;;
14139;SDS011;7150;53.514;9.988;2022-11-13T05:10:52;16.17;;;10.60;;
14139;SDS011;7150;53.514;9.988;2022-11-13T05:13:17;17.93;;;10.30;;
14139;SDS011;7150;53.514;9.988;2022-11-13T05:15:43;17.57;;;10.50;;
14139;SDS011;7150;53.514;9.988;2022-11-13T05:18:08;14.37;;;9.83;;
14139;SDS011;7150;53.514;9.988;2022-11-13T05:20:34;18.47;;;10.40;;
14139;SDS011;7150;53.514;9.988;2022-11-13T05:22:59;18.27;;;10.87;;
14139;SDS011;7150;53.514;9.988;2022-11-13T05:25:25;16.97;;;10.20;;
14139;SDS011;7150;53.514;9.988;2022-11-13T05:27:50;15.47;;;9.80;;
14139;SDS011;7150;53.514;9.988;2022-11-13T05:30:16;16.77;;;10.43;;
14139;SDS011;7150;53.514;9.988;2022-11-13T05:32:42;15.67;;;9.87;;
14139;SDS011;7150;53.514;9.988;2022-11-13T05:35:07;18.47;;;10.30;;
14139;SDS011;7150;53.514;9.988;2022-11-13T05:37:33;16.67;;;10.37;;
14139;SDS011;7150;53.514;9.988;2022-11-13T05:39:59;18.33;;;9.93;;
14139;SDS011;7150;53.514;9.988;2022-11-13T05:42:24;13.03;;;8.97;;
14139;SDS011;7150;53.514;9.988;2022-11-13T05:44:50;17.83;;;10.33;;
14139;SDS011;7150;53.514;9.988;2022-11-13T05:47:15;16.67;;;10.40;;
14139;SDS011;7150;53.514;9.988;2022-11-13T05:49:41;15.40;;;9.40;;
14139;SDS011;7150;53.514;9.988;2022-11-13T05:52:06;15.87;;;10.10;;
14139;SDS011;7150;53.514;9.988;2022-11-13T05:54:32;18.40;;;11.00;;
14139;SDS011;7150;53.514;9.988;2022-11-13T05:56:57;16.07;;;9.87;;
14139;SDS011;7150;53.514;9.988;2022-11-13T05:59:22;16.50;;;10.13;;
14139;SDS011;7150;53.514;9.988;2022-11-13T06:01:48;17.23;;;10.47;;
14139;SDS011;7150;53.514;9.988;2022-11-13T06:04:13;18.30;;;10.13;;
14139;SDS011;7150;53.514;9.988;2022-11-13T06:06:39;18.67;;;10.67;;
14139;SDS011;7150;53.514;9.988;2022-11-13T06:09:05;15.83;;;10.27;;
14139;SDS011;7150;53.514;9.988;2022-11-13T06:11:31;19.57;;;10.77;;
14139;SDS011;7150;53.514;9.988;2022-11-13T06:13:57;15.77;;;9.67;;
14139;SDS011;7150;53.514;9.988;2022-11-13T06:16:25;18.33;;;10.30;;
14139;SDS011;7150;53.514;9.988;2022-11-13T06:18:55;19.03;;;10.40;;
14139;SDS011;7150;53.514;9.988;2022-11-13T06:21:24;19.23;;;10.57;;
14139;SDS011;7150;53.514;9.988;2022-11-13T06:23:51;18.23;;;9.93;;
14139;SDS011;7150;53.514;9.988;2022-11-13T06:26:18;16.20;;;10.40;;
14139;SDS011;7150;53.514;9.988;2022-11-13T06:29:05;17.87;;;10.73;;
14139;SDS011;7150;53.514;9.988;2022-11-13T06:31:33;16.30;;;10.23;;
14139;SDS011;7150;53.514;9.988;2022-11-13T06:33:59;17.43;;;10.20;;
14139;SDS011;7150;53.514;9.988;2022-11-13T06:36:26;17.83;;;10.40;;
14139;SDS011;7150;53.514;9.988;2022-11-13T06:38:54;15.47;;;9.17;;
14139;SDS011;7150;53.514;9.988;2022-11-13T06:41:21;14.20;;;8.80;;
14139;SDS011;7150;53.514;9.988;2022-11-13T06:43:48;14.90;;;9.37;;
14139;SDS011;7150;53.514;9.988;2022-11-13T06:46:14;15.87;;;9.80;;
14139;SDS011;7150;53.514;9.988;2022-11-13T06:48:43;18.03;;;9.60;;
14139;SDS011;7150;53.514;9.988;2022-11-13T06:51:15;16.43;;;9.57;;
14139;SDS011;7150;53.514;9.988;2022-11-13T06:53:45;13.47;;;9.23;;
14139;SDS011;7150;53.514;9.988;2022-11-13T06:56:11;14.50;;;9.70;;
14139;SDS011;7150;53.514;9.988;2022-11-13T06:58:37;15.57;;;9.30;;
14139;SDS011;7150;53.514;9.988;2022-11-13T07:01:04;18.43;;;10.27;;
14139;SDS011;7150;53.514;9.988;2022-11-13T07:03:41;16.33;;;9.57;;
14139;SDS011;7150;53.514;9.988;2022-11-13T07:06:08;16.50;;;9.27;;
14139;SDS011;7150;53.514;9.988;2022-11-13T07:08:39;13.60;;;8.87;;
14139;SDS011;7150;53.514;9.988;2022-11-13T07:11:05;14.47;;;9.37;;
14139;SDS011;7150;53.514;9.988;2022-11-13T07:13:33;16.17;;;8.77;;
14139;SDS011;7150;53.514;9.988;2022-11-13T07:16:01;14.83;;;9.20;;
14139;SDS011;7150;53.514;9.988;2022-11-13T07:18:28;12.97;;;8.37;;
14139;SDS011;7150;53.514;9.988;2022-11-13T07:20:54;13.07;;;8.57;;
14139;SDS011;7150;53.514;9.988;2022-11-13T07:23:20;11.63;;;7.90;;
14139;SDS011;7150;53.514;9.988;2022-11-13T07:25:46;11.97;;;7.97;;
14139;SDS011;7150;53.514;9.988;2022-11-13T07:28:11;12.00;;;7.63;;
14139;SDS011;7150;53.514;9.988;2022-11-13T07:30:37;14.30;;;9.43;;
14139;SDS011;7150;53.514;9.988;2022-11-13T07:33:02;13.77;;;9.00;;
14139;SDS011;7150;53.514;9.988;2022-11-13T07:35:28;13.47;;;8.60;;
14139;SDS011;7150;53.514;9.988;2022-11-13T07:37:54;12.23;;;8.57;;
14139;SDS011;7150;53.514;9.988;2022-11-13T07:40:20;16.90;;;9.73;;
14139;SDS011;7150;53.514;9.988;2022-11-13T07:42:46;15.70;;;9.43;;
14139;SDS011;7150;53.514;9.988;2022-11-13T07:45:12;18.10;;;10.40;;
14139;SDS011;7150;53.514;9.988;2022-11-13T07:47:37;16.97;;;10.00;;
14139;SDS011;7150;53.514;9.988;2022-11-13T07:50:03;19.03;;;10.60;;
14139;SDS011;7150;53.514;9.988;2022-11-13T07:52:29;17.73;;;10.27;;
14139;SDS011;7150;53.514;9.988;2022-11-13T07:54:54;17.00;;;10.70;;
14139;SDS011;7150;53.514;9.988;2022-11-13T07:57:20;18.30;;;11.37;;
14139;SDS011;7150;53.514;9.988;2022-11-13T07:59:46;17.63;;;10.50;;
14139;SDS011;7150;53.514;9.988;2022-11-13T08:02:13;19.67;;;10.27;;
14139;SDS011;7150;53.514;9.988;2022-11-13T08:04:40;18.43;;;10.63;;
14139;SDS011;7150;53.514;9.988;2022-11-13T08:07:05;19.00;;;10.97;;
14139;SDS011;7150;53.514;9.988;2022-11-13T08:09:31;20.07;;;10.80;;
14139;SDS011;7150;53.514;9.988;2022-11-13T08:11:57;17.57;;;11.30;;
14139;SDS011;7150;53.514;9.988;2022-11-13T08:14:22;17.60;;;10.70;;
14139;SDS011;7150;53.514;9.988;2022-11-13T08:16:48;19.30;;;11.40;;
14139;SDS011;7150;53.514;9.988;2022-11-13T08:19:13;18.73;;;11.23;;
14139;SDS011;7150;53.514;9.988;2022-11-13T08:21:39;18.87;;;11.23;;
14139;SDS011;7150;53.514;9.988;2022-11-13T08:24:04;17.00;;;10.50;;
14139;SDS011;7150;53.514;9.988;2022-11-13T08:26:30;20.53;;;11.63;;
14139;SDS011;7150;53.514;9.988;2022-11-13T08:28:55;23.83;;;11.33;;
14139;SDS011;7150;53.514;9.988;2022-11-13T08:31:21;21.80;;;11.40;;
14139;SDS011;7150;53.514;9.988;2022-11-13T08:33:46;20.77;;;10.70;;
14139;SDS011;7150;53.514;9.988;2022-11-13T08:36:12;18.57;;;10.50;;
14139;SDS011;7150;53.514;9.988;2022-11-13T08:38:37;20.93;;;11.83;;
14139;SDS011;7150;53.514;9.988;2022-11-13T08:41:03;19.50;;;11.53;;
14139;SDS011;7150;53.514;9.988;2022-11-13T08:43:30;21.80;;;11.70;;
14139;SDS011;7150;53.514;9.988;2022-11-13T08:45:55;18.70;;;10.33;;
14139;SDS011;7150;53.514;9.988;2022-11-13T08:48:22;23.30;;;10.87;;
14139;SDS011;7150;53.514;9.988;2022-11-13T08:50:51;18.53;;;10.77;;
14139;SDS011;7150;53.514;9.988;2022-11-13T08:53:18;17.77;;;10.60;;
14139;SDS011;7150;53.514;9.988;2022-11-13T08:55:44;19.37;;;10.93;;
14139;SDS011;7150;53.514;9.988;2022-11-13T08:58:09;21.00;;;10.63;;
14139;SDS011;7150;53.514;9.988;2022-11-13T09:00:35;22.80;;;11.17;;
14139;SDS011;7150;53.514;9.988;2022-11-13T09:03:00;20.67;;;11.43;;
14139;SDS011;7150;53.514;9.988;2022-11-13T09:05:26;19.17;;;9.80;;
14139;SDS011;7150;53.514;9.988;2022-11-13T09:07:59;23.07;;;9.87;;
14139;SDS011;7150;53.514;9.988;2022-11-13T09:10:25;18.20;;;9.33;;
14139;SDS011;7150;53.514;9.988;2022-11-13T09:12:58;21.23;;;10.50;;
14139;SDS011;7150;53.514;9.988;2022-11-13T09:15:25;19.10;;;10.23;;
14139;SDS011;7150;53.514;9.988;2022-11-13T09:17:58;21.73;;;11.80;;
14139;SDS011;7150;53.514;9.988;2022-11-13T09:20:25;19.40;;;10.87;;
14139;SDS011;7150;53.514;9.988;2022-11-13T09:22:55;26.93;;;11.57;;
14139;SDS011;7150;53.514;9.988;2022-11-13T09:25:25;24.93;;;11.70;;
14139;SDS011;7150;53.514;9.988;2022-11-13T09:27:53;23.50;;;10.83;;
14139;SDS011;7150;53.514;9.988;2022-11-13T09:30:20;22.60;;;11.03;;
14139;SDS011;7150;53.514;9.988;2022-11-13T09:32:46;24.47;;;11.90;;
14139;SDS011;7150;53.514;9.988;2022-11-13T09:35:11;25.17;;;12.37;;
14139;SDS011;7150;53.514;9.988;2022-11-13T09:37:37;21.70;;;12.33;;
14139;SDS011;7150;53.514;9.988;2022-11-13T09:40:02;20.97;;;12.00;;
14139;SDS011;7150;53.514;9.988;2022-11-13T09:42:28;23.87;;;11.27;;
14139;SDS011;7150;53.514;9.988;2022-11-13T09:45:00;23.60;;;11.80;;
14139;SDS011;7150;53.514;9.988;2022-11-13T09:47:35;23.23;;;12.33;;
14139;SDS011;7150;53.514;9.988;2022-11-13T09:50:10;26.33;;;12.17;;
14139;SDS011;7150;53.514;9.988;2022-11-13T09:52:49;23.77;;;11.53;;
14139;SDS011;7150;53.514;9.988;2022-11-13T09:55:16;27.23;;;12.90;;
14139;SDS011;7150;53.514;9.988;2022-11-13T10:00:31;26.33;;;13.30;;
14139;SDS011;7150;53.514;9.988;2022-11-13T10:06:19;27.77;;;13.40;;
14139;SDS011;7150;53.514;9.988;2022-11-13T10:08:54;23.50;;;11.93;;
14139;SDS011;7150;53.514;9.988;2022-11-13T10:11:56;33.20;;;15.57;;
14139;SDS011;7150;53.514;9.988;2022-11-13T10:14:23;28.53;;;13.73;;
14139;SDS011;7150;53.514;9.988;2022-11-13T10:17:00;29.60;;;12.93;;
14139;SDS011;7150;53.514;9.988;2022-11-13T10:19:53;29.87;;;13.80;;
14139;SDS011;7150;53.514;9.988;2022-11-13T10:22:29;27.40;;;13.93;;
14139;SDS011;7150;53.514;9.988;2022-11-13T10:25:11;29.23;;;14.87;;
14139;SDS011;7150;53.514;9.988;2022-11-13T10:27:42;27.63;;;14.70;;
14139;SDS011;7150;53.514;9.988;2022-11-13T10:30:13;28.37;;;15.37;;
14139;SDS011;7150;53.514;9.988;2022-11-13T10:32:40;26.80;;;14.57;;
14139;SDS011;7150;53.514;9.988;2022-11-13T10:37:38;25.53;;;14.60;;
14139;SDS011;7150;53.514;9.988;2022-11-13T10:40:22;27.97;;;15.17;;
14139;SDS011;7150;53.514;9.988;2022-11-13T10:42:52;28.43;;;15.70;;
14139;SDS011;7150;53.514;9.988;2022-11-13T10:45:19;27.93;;;15.13;;
14139;SDS011;7150;53.514;9.988;2022-11-13T10:47:47;24.50;;;13.83;;
14139;SDS011;7150;53.514;9.988;2022-11-13T10:50:19;22.67;;;13.60;;
14139;SDS011;7150;53.514;9.988;2022-11-13T10:52:46;28.13;;;14.90;;
14139;SDS011;7150;53.514;9.988;2022-11-13T10:55:16;26.10;;;14.37;;
14139;SDS011;7150;53.514;9.988;2022-11-13T10:57:53;27.37;;;14.73;;
14139;SDS011;7150;53.514;9.988;2022-11-13T11:00:30;24.27;;;13.70;;
14139;SDS011;7150;53.514;9.988;2022-11-13T11:02:57;26.43;;;13.73;;
14139;SDS011;7150;53.514;9.988;2022-11-13T11:05:23;25.53;;;14.37;;
14139;SDS011;7150;53.514;9.988;2022-11-13T11:07:50;27.80;;;14.63;;
14139;SDS011;7150;53.514;9.988;2022-11-13T11:10:24;25.00;;;13.60;;
14139;SDS011;7150;53.514;9.988;2022-11-13T11:13:01;23.00;;;13.13;;
14139;SDS011;7150;53.514;9.988;2022-11-13T11:18:31;23.30;;;13.97;;
14139;SDS011;7150;53.514;9.988;2022-11-13T11:21:05;23.17;;;12.93;;
14139;SDS011;7150;53.514;9.988;2022-11-13T11:26:04;24.27;;;13.97;;
14139;SDS011;7150;53.514;9.988;2022-11-13T11:28:46;27.67;;;13.77;;
14139;SDS011;7150;53.514;9.988;2022-11-13T11:34:16;25.10;;;13.67;;
14139;SDS011;7150;53.514;9.988;2022-11-13T11:45:22;29.37;;;14.53;;
14139;SDS011;7150;53.514;9.988;2022-11-13T11:47:51;23.27;;;14.30;;
14139;SDS011;7150;53.514;9.988;2022-11-13T11:50:22;25.17;;;14.50;;
14139;SDS011;7150;53.514;9.988;2022-11-13T11:53:32;28.77;;;15.43;;
14139;SDS011;7150;53.514;9.988;2022-11-13T11:56:19;26.70;;;14.73;;
14139;SDS011;7150;53.514;9.988;2022-11-13T11:59:00;25.77;;;14.57;;
14139;SDS011;7150;53.514;9.988;2022-11-13T12:04:28;24.63;;;14.50;;
14139;SDS011;7150;53.514;9.988;2022-11-13T12:10:06;28.23;;;15.17;;
14139;SDS011;7150;53.514;9.988;2022-11-13T12:13:18;23.63;;;14.50;;
14139;SDS011;7150;53.514;9.988;2022-11-13T12:26:38;25.17;;;13.30;;
14139;SDS011;7150;53.514;9.988;2022-11-13T12:29:20;20.00;;;12.33;;
14139;SDS011;7150;53.514;9.988;2022-11-13T12:34:46;23.40;;;12.23;;
14139;SDS011;7150;53.514;9.988;2022-11-13T12:37:27;18.57;;;11.50;;
14139;SDS011;7150;53.514;9.988;2022-11-13T12:39:56;19.73;;;11.93;;
14139;SDS011;7150;53.514;9.988;2022-11-13T12:42:32;21.23;;;11.70;;
14139;SDS011;7150;53.514;9.988;2022-11-13T12:45:16;19.23;;;12.07;;
14139;SDS011;7150;53.514;9.988;2022-11-13T12:48:08;15.40;;;10.17;;
14139;SDS011;7150;53.514;9.988;2022-11-13T12:50:55;19.43;;;11.63;;
14139;SDS011;7150;53.514;9.988;2022-11-13T12:53:29;19.80;;;11.37;;
14139;SDS011;7150;53.514;9.988;2022-11-13T12:56:08;15.57;;;9.60;;
14139;SDS011;7150;53.514;9.988;2022-11-13T12:58:54;16.83;;;9.77;;
14139;SDS011;7150;53.514;9.988;2022-11-13T13:04:30;15.93;;;9.83;;
14139;SDS011;7150;53.514;9.988;2022-11-13T13:15:39;15.03;;;8.73;;
14139;SDS011;7150;53.514;9.988;2022-11-13T13:20:59;16.17;;;9.97;;
14139;SDS011;7150;53.514;9.988;2022-11-13T13:23:31;18.97;;;10.30;;
14139;SDS011;7150;53.514;9.988;2022-11-13T13:26:13;18.00;;;9.30;;
14139;SDS011;7150;53.514;9.988;2022-11-13T13:28:40;18.80;;;11.10;;
14139;SDS011;7150;53.514;9.988;2022-11-13T13:47:55;16.60;;;10.20;;
14139;SDS011;7150;53.514;9.988;2022-11-13T13:50:23;17.70;;;9.33;;
14139;SDS011;7150;53.514;9.988;2022-11-13T13:52:51;14.30;;;9.87;;
14139;SDS011;7150;53.514;9.988;2022-11-13T13:55:26;12.97;;;9.30;;
14139;SDS011;7150;53.514;9.988;2022-11-13T13:57:56;14.83;;;10.17;;
14139;SDS011;7150;53.514;9.988;2022-11-13T14:00:21;13.70;;;9.60;;
14139;SDS011;7150;53.514;9.988;2022-11-13T14:02:49;17.13;;;9.93;;
14139;SDS011;7150;53.514;9.988;2022-11-13T14:05:22;16.90;;;10.03;;
14139;SDS011;7150;53.514;9.988;2022-11-13T14:07:56;14.40;;;9.73;;
14139;SDS011;7150;53.514;9.988;2022-11-13T14:10:26;15.30;;;10.17;;
14139;SDS011;7150;53.514;9.988;2022-11-13T14:12:53;17.40;;;10.70;;
14139;SDS011;7150;53.514;9.988;2022-11-13T14:18:04;14.27;;;10.10;;
14139;SDS011;7150;53.514;9.988;2022-11-13T14:23:13;17.77;;;11.40;;
14139;SDS011;7150;53.514;9.988;2022-11-13T14:25:44;17.90;;;11.27;;
14139;SDS011;7150;53.514;9.988;2022-11-13T14:28:12;19.93;;;11.40;;
14139;SDS011;7150;53.514;9.988;2022-11-13T14:30:39;23.67;;;13.93;;
14139;SDS011;7150;53.514;9.988;2022-11-13T14:33:07;20.10;;;13.37;;
14139;SDS011;7150;53.514;9.988;2022-11-13T14:35:34;22.13;;;13.27;;
14139;SDS011;7150;53.514;9.988;2022-11-13T14:38:04;21.97;;;14.10;;
14139;SDS011;7150;53.514;9.988;2022-11-13T14:40:29;23.97;;;13.80;;
14139;SDS011;7150;53.514;9.988;2022-11-13T14:42:58;22.63;;;13.13;;
14139;SDS011;7150;53.514;9.988;2022-11-13T14:45:29;21.40;;;13.50;;
14139;SDS011;7150;53.514;9.988;2022-11-13T14:50:52;23.83;;;14.43;;
14139;SDS011;7150;53.514;9.988;2022-11-13T14:53:30;26.20;;;15.67;;
14139;SDS011;7150;53.514;9.988;2022-11-13T14:56:03;26.80;;;15.67;;
14139;SDS011;7150;53.514;9.988;2022-11-13T14:58:40;25.57;;;15.23;;
14139;SDS011;7150;53.514;9.988;2022-11-13T15:01:14;28.03;;;15.50;;
14139;SDS011;7150;53.514;9.988;2022-11-13T15:03:41;26.67;;;15.43;;
14139;SDS011;7150;53.514;9.988;2022-11-13T15:06:53;25.33;;;14.97;;
14139;SDS011;7150;53.514;9.988;2022-11-13T15:09:04;25.67;;;14.90;;
14139;SDS011;7150;53.514;9.988;2022-11-13T15:11:40;27.70;;;14.47;;
14139;SDS011;7150;53.514;9.988;2022-11-13T15:14:13;23.10;;;14.00;;
14139;SDS011;7150;53.514;9.988;2022-11-13T15:16:39;29.50;;;14.00;;
14139;SDS011;7150;53.514;9.988;2022-11-13T15:21:55;22.73;;;12.87;;
14139;SDS011;7150;53.514;9.988;2022-11-13T15:24:21;21.30;;;12.53;;
14139;SDS011;7150;53.514;9.988;2022-11-13T15:26:47;18.83;;;11.50;;
14139;SDS011;7150;53.514;9.988;2022-11-13T15:29:12;19.67;;;11.67;;
14139;SDS011;7150;53.514;9.988;2022-11-13T15:31:42;18.47;;;11.63;;
14139;SDS011;7150;53.514;9.988;2022-11-13T15:34:09;20.60;;;12.27;;
14139;SDS011;7150;53.514;9.988;2022-11-13T15:36:36;18.47;;;12.73;;
14139;SDS011;7150;53.514;9.988;2022-11-13T15:39:01;18.90;;;12.53;;
14139;SDS011;7150;53.514;9.988;2022-11-13T15:41:28;20.47;;;12.77;;
14139;SDS011;7150;53.514;9.988;2022-11-13T15:43:55;16.97;;;10.80;;
14139;SDS011;7150;53.514;9.988;2022-11-13T15:46:21;15.47;;;10.23;;
14139;SDS011;7150;53.514;9.988;2022-11-13T15:48:48;14.67;;;9.33;;
14139;SDS011;7150;53.514;9.988;2022-11-13T15:53:45;15.03;;;8.10;;
14139;SDS011;7150;53.514;9.988;2022-11-13T15:56:16;10.97;;;6.57;;
14139;SDS011;7150;53.514;9.988;2022-11-13T15:58:42;10.93;;;7.20;;
14139;SDS011;7150;53.514;9.988;2022-11-13T16:01:07;10.63;;;6.97;;
14139;SDS011;7150;53.514;9.988;2022-11-13T16:03:36;9.77;;;6.40;;
14139;SDS011;7150;53.514;9.988;2022-11-13T16:06:04;9.00;;;6.70;;
14139;SDS011;7150;53.514;9.988;2022-11-13T16:08:35;9.80;;;7.10;;
14139;SDS011;7150;53.514;9.988;2022-11-13T16:11:00;11.37;;;6.80;;
14139;SDS011;7150;53.514;9.988;2022-11-13T16:13:26;11.07;;;7.50;;
14139;SDS011;7150;53.514;9.988;2022-11-13T16:15:51;10.67;;;6.43;;
14139;SDS011;7150;53.514;9.988;2022-11-13T16:18:22;9.50;;;6.23;;
14139;SDS011;7150;53.514;9.988;2022-11-13T16:20:49;9.30;;;5.70;;